sensor_id;sensor_type;location;lat;lon;timestamp;pressure;altitude;pressure_sealevel;temperature;humidity
28167;BME280;15455;53.376;-6.262;2023-04-27T00:01:33;101233.09;;;8.42;100.00
28167;BME280;15455;53.376;-6.262;2023-04-27T00:04:19;101240.06;;;8.43;100.00
28167;BME280;15455;53.376;-6.262;2023-04-27T00:07:05;101240.94;;;8.43;100.00
28167;BME280;15455;53.376;-6.262;2023-04-27T00:09:50;101234.06;;;8.45;100.00
28167;BME280;15455;53.376;-6.262;2023-04-27T00:12:36;101234.91;;;8.44;100.00
28167;BME280;15455;53.376;-6.262;2023-04-27T00:15:22;101233.16;;;8.45;100.00
28167;BME280;15455;53.376;-6.262;2023-04-27T00:18:08;101227.09;;;8.44;100.00
28167;BME280;15455;53.376;-6.262;2023-04-27T00:20:54;101226.22;;;8.44;100.00
28167;BME280;15455;53.376;-6.262;2023-04-27T00:23:39;101224.47;;;8.43;100.00
28167;BME280;15455;53.376;-6.262;2023-04-27T00:26:25;101225.31;;;8.42;100.00
28167;BME280;15455;53.376;-6.262;2023-04-27T00:29:10;101228.78;;;8.41;100.00
28167;BME280;15455;53.376;-6.262;2023-04-27T00:31:56;101221.84;;;8.41;100.00
28167;BME280;15455;53.376;-6.262;2023-04-27T00:34:42;101227.00;;;8.40;100.00
28167;BME280;15455;53.376;-6.262;2023-04-27T00:37:27;101226.19;;;8.41;100.00
28167;BME280;15455;53.376;-6.262;2023-04-27T00:40:13;101219.22;;;8.40;100.00
28167;BME280;15455;53.376;-6.262;2023-04-27T00:42:58;101220.09;;;8.42;100.00
28167;BME280;15455;53.376;-6.262;2023-04-27T00:45:44;101219.22;;;8.40;100.00
28167;BME280;15455;53.376;-6.262;2023-04-27T00:48:30;101214.00;;;8.40;100.00
28167;BME280;15455;53.376;-6.262;2023-04-27T00:51:15;101210.56;;;8.39;100.00
28167;BME280;15455;53.376;-6.262;2023-04-27T00:54:01;101204.50;;;8.42;100.00
28167;BME280;15455;53.376;-6.262;2023-04-27T00:56:49;101193.22;;;8.40;100.00
28167;BME280;15455;53.376;-6.262;2023-04-27T00:59:35;101191.50;;;8.42;100.00
28167;BME280;15455;53.376;-6.262;2023-04-27T01:02:20;101184.56;;;8.42;100.00
28167;BME280;15455;53.376;-6.262;2023-04-27T01:05:07;101176.78;;;8.44;100.00
28167;BME280;15455;53.376;-6.262;2023-04-27T01:07:54;101175.09;;;8.44;100.00
28167;BME280;15455;53.376;-6.262;2023-04-27T01:10:39;101169.00;;;8.44;100.00
28167;BME280;15455;53.376;-6.262;2023-04-27T01:13:27;101171.59;;;8.44;100.00
28167;BME280;15455;53.376;-6.262;2023-04-27T01:16:13;101172.50;;;8.44;100.00
28167;BME280;15455;53.376;-6.262;2023-04-27T01:18:59;101167.28;;;8.44;100.00
28167;BME280;15455;53.376;-6.262;2023-04-27T01:21:44;101166.38;;;8.44;100.00
28167;BME280;15455;53.376;-6.262;2023-04-27T01:24:30;101155.97;;;8.44;100.00
28167;BME280;15455;53.376;-6.262;2023-04-27T01:27:16;101153.38;;;8.44;100.00
28167;BME280;15455;53.376;-6.262;2023-04-27T01:30:01;101148.19;;;8.44;100.00
28167;BME280;15455;53.376;-6.262;2023-04-27T01:32:48;101147.34;;;8.45;100.00
28167;BME280;15455;53.376;-6.262;2023-04-27T01:35:36;101138.69;;;8.46;100.00
28167;BME280;15455;53.376;-6.262;2023-04-27T01:38:22;101137.84;;;8.47;100.00
28167;BME280;15455;53.376;-6.262;2023-04-27T01:41:08;101127.47;;;8.48;100.00
28167;BME280;15455;53.376;-6.262;2023-04-27T01:43:53;101128.34;;;8.50;100.00
28167;BME280;15455;53.376;-6.262;2023-04-27T01:46:39;101121.44;;;8.51;100.00
28167;BME280;15455;53.376;-6.262;2023-04-27T01:49:25;101111.88;;;8.51;100.00
28167;BME280;15455;53.376;-6.262;2023-04-27T01:52:11;101104.94;;;8.52;100.00
28167;BME280;15455;53.376;-6.262;2023-04-27T01:54:56;101094.59;;;8.55;100.00
28167;BME280;15455;53.376;-6.262;2023-04-27T01:57:42;101098.91;;;8.56;100.00
28167;BME280;15455;53.376;-6.262;2023-04-27T02:00:28;101099.84;;;8.58;100.00
28167;BME280;15455;53.376;-6.262;2023-04-27T02:03:16;101093.72;;;8.58;100.00
28167;BME280;15455;53.376;-6.262;2023-04-27T02:06:03;101098.94;;;8.58;100.00
28167;BME280;15455;53.376;-6.262;2023-04-27T02:08:48;101092.03;;;8.58;100.00
28167;BME280;15455;53.376;-6.262;2023-04-27T02:11:34;101103.28;;;8.57;100.00
28167;BME280;15455;53.376;-6.262;2023-04-27T02:14:20;101109.34;;;8.58;100.00
28167;BME280;15455;53.376;-6.262;2023-04-27T02:17:05;101104.13;;;8.56;100.00
28167;BME280;15455;53.376;-6.262;2023-04-27T02:19:51;101103.28;;;8.57;100.00
28167;BME280;15455;53.376;-6.262;2023-04-27T02:22:40;101095.47;;;8.56;100.00
28167;BME280;15455;53.376;-6.262;2023-04-27T02:25:27;101093.75;;;8.59;100.00
28167;BME280;15455;53.376;-6.262;2023-04-27T02:28:13;101087.66;;;8.57;100.00
28167;BME280;15455;53.376;-6.262;2023-04-27T02:31:00;101077.25;;;8.57;100.00
28167;BME280;15455;53.376;-6.262;2023-04-27T02:33:45;101076.41;;;8.58;100.00
28167;BME280;15455;53.376;-6.262;2023-04-27T02:36:31;101078.13;;;8.58;100.00
28167;BME280;15455;53.376;-6.262;2023-04-27T02:39:16;101072.06;;;8.59;100.00
28167;BME280;15455;53.376;-6.262;2023-04-27T02:42:02;101075.56;;;8.61;100.00
28167;BME280;15455;53.376;-6.262;2023-04-27T02:44:48;101069.50;;;8.62;100.00
28167;BME280;15455;53.376;-6.262;2023-04-27T02:47:34;101059.09;;;8.62;100.00
28167;BME280;15455;53.376;-6.262;2023-04-27T02:50:19;101063.44;;;8.63;100.00
28167;BME280;15455;53.376;-6.262;2023-04-27T02:53:05;101056.50;;;8.62;100.00
28167;BME280;15455;53.376;-6.262;2023-04-27T02:55:50;101056.53;;;8.65;100.00
28167;BME280;15455;53.376;-6.262;2023-04-27T02:58:35;101053.06;;;8.66;100.00
28167;BME280;15455;53.376;-6.262;2023-04-27T03:01:21;101053.94;;;8.68;100.00
28167;BME280;15455;53.376;-6.262;2023-04-27T03:04:07;101054.84;;;8.70;100.00
28167;BME280;15455;53.376;-6.262;2023-04-27T03:06:53;101053.13;;;8.72;100.00
28167;BME280;15455;53.376;-6.262;2023-04-27T03:09:39;101044.47;;;8.73;100.00
28167;BME280;15455;53.376;-6.262;2023-04-27T03:12:24;101034.91;;;8.74;100.00
28167;BME280;15455;53.376;-6.262;2023-04-27T03:15:10;101035.81;;;8.76;100.00
28167;BME280;15455;53.376;-6.262;2023-04-27T03:17:55;101043.66;;;8.77;100.00
28167;BME280;15455;53.376;-6.262;2023-04-27T03:20:41;101043.66;;;8.80;100.00
28167;BME280;15455;53.376;-6.262;2023-04-27T03:23:26;101045.44;;;8.83;100.00
28167;BME280;15455;53.376;-6.262;2023-04-27T03:26:13;101046.31;;;8.85;100.00
28167;BME280;15455;53.376;-6.262;2023-04-27T03:28:59;101043.72;;;8.85;100.00
28167;BME280;15455;53.376;-6.262;2023-04-27T03:31:46;101049.81;;;8.85;100.00
28167;BME280;15455;53.376;-6.262;2023-04-27T03:34:32;101042.00;;;8.87;100.00
28167;BME280;15455;53.376;-6.262;2023-04-27T03:37:18;101041.13;;;8.90;100.00
28167;BME280;15455;53.376;-6.262;2023-04-27T03:40:03;101040.28;;;8.89;100.00
28167;BME280;15455;53.376;-6.262;2023-04-27T03:42:52;101041.19;;;8.91;100.00
28167;BME280;15455;53.376;-6.262;2023-04-27T03:45:37;101035.09;;;8.92;100.00
28167;BME280;15455;53.376;-6.262;2023-04-27T03:48:22;101027.28;;;8.91;100.00
28167;BME280;15455;53.376;-6.262;2023-04-27T03:51:10;101023.81;;;8.89;100.00
28167;BME280;15455;53.376;-6.262;2023-04-27T03:53:56;101023.81;;;8.89;100.00
28167;BME280;15455;53.376;-6.262;2023-04-27T03:56:41;101023.78;;;8.87;100.00
28167;BME280;15455;53.376;-6.262;2023-04-27T03:59:29;101030.72;;;8.90;100.00
28167;BME280;15455;53.376;-6.262;2023-04-27T04:02:14;101032.47;;;8.89;100.00
28167;BME280;15455;53.376;-6.262;2023-04-27T04:05:00;101026.41;;;8.87;100.00
28167;BME280;15455;53.376;-6.262;2023-04-27T04:07:46;101029.84;;;8.88;100.00
28167;BME280;15455;53.376;-6.262;2023-04-27T04:10:32;101028.97;;;8.85;100.00
28167;BME280;15455;53.376;-6.262;2023-04-27T04:13:17;101022.88;;;8.85;100.00
28167;BME280;15455;53.376;-6.262;2023-04-27T04:16:07;101023.78;;;8.84;100.00
28167;BME280;15455;53.376;-6.262;2023-04-27T04:18:53;101022.88;;;8.82;100.00
28167;BME280;15455;53.376;-6.262;2023-04-27T04:21:39;101023.69;;;8.79;100.00
28167;BME280;15455;53.376;-6.262;2023-04-27T04:24:26;101030.66;;;8.80;100.00
28167;BME280;15455;53.376;-6.262;2023-04-27T04:27:12;101028.03;;;8.77;100.00
28167;BME280;15455;53.376;-6.262;2023-04-27T04:29:58;101022.81;;;8.77;100.00
28167;BME280;15455;53.376;-6.262;2023-04-27T04:32:44;101015.84;;;8.75;100.00
28167;BME280;15455;53.376;-6.262;2023-04-27T04:35:30;101020.19;;;8.74;100.00
28167;BME280;15455;53.376;-6.262;2023-04-27T04:38:17;101019.31;;;8.74;100.00
28167;BME280;15455;53.376;-6.262;2023-04-27T04:41:03;101009.75;;;8.69;100.00
28167;BME280;15455;53.376;-6.262;2023-04-27T04:43:50;101005.41;;;8.68;100.00
28167;BME280;15455;53.376;-6.262;2023-04-27T04:46:35;101008.00;;;8.68;100.00
28167;BME280;15455;53.376;-6.262;2023-04-27T04:49:21;101012.34;;;8.69;100.00
28167;BME280;15455;53.376;-6.262;2023-04-27T04:52:07;101011.47;;;8.71;100.00
28167;BME280;15455;53.376;-6.262;2023-04-27T04:54:53;101011.50;;;8.74;100.00
28167;BME280;15455;53.376;-6.262;2023-04-27T04:57:38;101015.00;;;8.76;100.00
28167;BME280;15455;53.376;-6.262;2023-04-27T05:00:24;101009.81;;;8.77;100.00
28167;BME280;15455;53.376;-6.262;2023-04-27T05:03:09;101010.69;;;8.81;100.00
28167;BME280;15455;53.376;-6.262;2023-04-27T05:05:56;101005.56;;;8.84;100.00
28167;BME280;15455;53.376;-6.262;2023-04-27T05:08:41;101004.69;;;8.88;100.00
28167;BME280;15455;53.376;-6.262;2023-04-27T05:11:26;101004.75;;;8.91;100.00
28167;BME280;15455;53.376;-6.262;2023-04-27T05:14:12;101003.88;;;8.92;100.00
28167;BME280;15455;53.376;-6.262;2023-04-27T05:16:57;101003.03;;;8.95;100.00
28167;BME280;15455;53.376;-6.262;2023-04-27T05:19:43;101002.19;;;8.97;100.00
28167;BME280;15455;53.376;-6.262;2023-04-27T05:22:28;100998.69;;;8.98;100.00
28167;BME280;15455;53.376;-6.262;2023-04-27T05:25:14;100997.84;;;8.99;100.00
28167;BME280;15455;53.376;-6.262;2023-04-27T05:27:59;101004.81;;;9.02;100.00
28167;BME280;15455;53.376;-6.262;2023-04-27T05:30:45;101010.03;;;9.03;100.00
28167;BME280;15455;53.376;-6.262;2023-04-27T05:33:31;101001.38;;;9.04;100.00
28167;BME280;15455;53.376;-6.262;2023-04-27T05:36:17;100999.63;;;9.07;100.00
28167;BME280;15455;53.376;-6.262;2023-04-27T05:39:02;100994.44;;;9.07;100.00
28167;BME280;15455;53.376;-6.262;2023-04-27T05:41:48;100984.91;;;9.07;100.00
28167;BME280;15455;53.376;-6.262;2023-04-27T05:44:33;100970.16;;;9.08;100.00
28167;BME280;15455;53.376;-6.262;2023-04-27T05:47:19;100974.50;;;9.09;100.00
28167;BME280;15455;53.376;-6.262;2023-04-27T05:50:05;100977.97;;;9.11;100.00
28167;BME280;15455;53.376;-6.262;2023-04-27T05:52:51;100975.38;;;9.11;100.00
28167;BME280;15455;53.376;-6.262;2023-04-27T05:55:36;100982.34;;;9.12;100.00
28167;BME280;15455;53.376;-6.262;2023-04-27T05:58:23;100976.25;;;9.13;100.00
28167;BME280;15455;53.376;-6.262;2023-04-27T06:01:09;100966.72;;;9.13;100.00
28167;BME280;15455;53.376;-6.262;2023-04-27T06:03:54;100975.41;;;9.14;100.00
28167;BME280;15455;53.376;-6.262;2023-04-27T06:06:40;100976.25;;;9.13;100.00
28167;BME280;15455;53.376;-6.262;2023-04-27T06:09:26;100981.50;;;9.16;100.00
28167;BME280;15455;53.376;-6.262;2023-04-27T06:12:11;100976.31;;;9.17;100.00
28167;BME280;15455;53.376;-6.262;2023-04-27T06:14:57;100975.41;;;9.17;100.00
28167;BME280;15455;53.376;-6.262;2023-04-27T06:17:43;100969.34;;;9.19;100.00
28167;BME280;15455;53.376;-6.262;2023-04-27T06:20:30;100973.72;;;9.20;100.00
28167;BME280;15455;53.376;-6.262;2023-04-27T06:23:15;100956.34;;;9.19;100.00
28167;BME280;15455;53.376;-6.262;2023-04-27T06:26:00;100949.44;;;9.25;100.00
28167;BME280;15455;53.376;-6.262;2023-04-27T06:28:46;100946.84;;;9.23;100.00
28167;BME280;15455;53.376;-6.262;2023-04-27T06:31:32;100950.28;;;9.22;100.00
28167;BME280;15455;53.376;-6.262;2023-04-27T06:34:18;100939.88;;;9.22;100.00
28167;BME280;15455;53.376;-6.262;2023-04-27T06:37:04;100939.00;;;9.23;100.00
28167;BME280;15455;53.376;-6.262;2023-04-27T06:39:49;100933.81;;;9.21;100.00
28167;BME280;15455;53.376;-6.262;2023-04-27T06:42:35;100928.59;;;9.23;100.00
28167;BME280;15455;53.376;-6.262;2023-04-27T06:45:21;100935.53;;;9.23;100.00
28167;BME280;15455;53.376;-6.262;2023-04-27T06:48:06;100936.44;;;9.26;100.00
28167;BME280;15455;53.376;-6.262;2023-04-27T06:50:52;100931.22;;;9.29;100.00
28167;BME280;15455;53.376;-6.262;2023-04-27T06:53:38;100935.59;;;9.30;100.00
28167;BME280;15455;53.376;-6.262;2023-04-27T06:56:23;100928.63;;;9.31;100.00
28167;BME280;15455;53.376;-6.262;2023-04-27T06:59:09;100930.38;;;9.32;100.00
28167;BME280;15455;53.376;-6.262;2023-04-27T07:01:55;100923.44;;;9.35;100.00
28167;BME280;15455;53.376;-6.262;2023-04-27T07:04:41;100921.72;;;9.36;100.00
28167;BME280;15455;53.376;-6.262;2023-04-27T07:07:27;100925.19;;;9.36;100.00
28167;BME280;15455;53.376;-6.262;2023-04-27T07:10:13;100931.25;;;9.37;100.00
28167;BME280;15455;53.376;-6.262;2023-04-27T07:12:59;100926.94;;;9.37;100.00
28167;BME280;15455;53.376;-6.262;2023-04-27T07:15:45;100928.66;;;9.37;100.00
28167;BME280;15455;53.376;-6.262;2023-04-27T07:18:30;100919.13;;;9.36;100.00
28167;BME280;15455;53.376;-6.262;2023-04-27T07:21:15;100926.06;;;9.37;100.00
28167;BME280;15455;53.376;-6.262;2023-04-27T07:24:01;100936.47;;;9.38;100.00
28167;BME280;15455;53.376;-6.262;2023-04-27T07:26:48;100933.88;;;9.40;100.00
28167;BME280;15455;53.376;-6.262;2023-04-27T07:29:33;100923.44;;;9.38;100.00
28167;BME280;15455;53.376;-6.262;2023-04-27T07:32:19;100929.56;;;9.41;100.00
28167;BME280;15455;53.376;-6.262;2023-04-27T07:35:07;100928.72;;;9.43;100.00
28167;BME280;15455;53.376;-6.262;2023-04-27T07:37:53;100927.84;;;9.46;100.00
28167;BME280;15455;53.376;-6.262;2023-04-27T07:40:40;100928.72;;;9.46;100.00
28167;BME280;15455;53.376;-6.262;2023-04-27T07:43:30;100926.13;;;9.48;100.00
28167;BME280;15455;53.376;-6.262;2023-04-27T07:46:16;100926.16;;;9.55;100.00
28167;BME280;15455;53.376;-6.262;2023-04-27T07:49:03;100932.25;;;9.59;100.00
28167;BME280;15455;53.376;-6.262;2023-04-27T07:51:48;100929.66;;;9.61;100.00
28167;BME280;15455;53.376;-6.262;2023-04-27T07:54:34;100916.66;;;9.65;100.00
28167;BME280;15455;53.376;-6.262;2023-04-27T07:57:19;100913.19;;;9.74;100.00
28167;BME280;15455;53.376;-6.262;2023-04-27T08:00:05;100912.34;;;9.80;100.00
28167;BME280;15455;53.376;-6.262;2023-04-27T08:02:58;100908.00;;;9.83;100.00
28167;BME280;15455;53.376;-6.262;2023-04-27T08:05:43;100908.00;;;9.85;100.00
28167;BME280;15455;53.376;-6.262;2023-04-27T08:08:30;100901.94;;;9.89;100.00
28167;BME280;15455;53.376;-6.262;2023-04-27T08:11:16;100901.97;;;9.95;100.00
28167;BME280;15455;53.376;-6.262;2023-04-27T08:14:02;100900.22;;;9.94;100.00
28167;BME280;15455;53.376;-6.262;2023-04-27T08:16:47;100905.44;;;9.97;100.00
28167;BME280;15455;53.376;-6.262;2023-04-27T08:19:33;100901.09;;;9.96;100.00
28167;BME280;15455;53.376;-6.262;2023-04-27T08:22:18;100900.22;;;9.97;100.00
28167;BME280;15455;53.376;-6.262;2023-04-27T08:25:05;100899.38;;;10.00;100.00
28167;BME280;15455;53.376;-6.262;2023-04-27T08:27:51;100888.06;;;10.02;100.00
28167;BME280;15455;53.376;-6.262;2023-04-27T08:30:36;100888.09;;;10.07;100.00
28167;BME280;15455;53.376;-6.262;2023-04-27T08:33:21;100884.59;;;10.09;100.00
28167;BME280;15455;53.376;-6.262;2023-04-27T08:36:07;100873.31;;;10.11;100.00
28167;BME280;15455;53.376;-6.262;2023-04-27T08:38:53;100870.69;;;10.17;100.00
28167;BME280;15455;53.376;-6.262;2023-04-27T08:41:41;100863.75;;;10.25;100.00
28167;BME280;15455;53.376;-6.262;2023-04-27T08:44:28;100863.81;;;10.34;100.00
28167;BME280;15455;53.376;-6.262;2023-04-27T08:47:14;100852.50;;;10.41;100.00
28167;BME280;15455;53.376;-6.262;2023-04-27T08:49:59;100846.44;;;10.47;100.00
28167;BME280;15455;53.376;-6.262;2023-04-27T08:52:45;100853.34;;;10.50;100.00
28167;BME280;15455;53.376;-6.262;2023-04-27T08:55:31;100848.13;;;10.51;100.00
28167;BME280;15455;53.376;-6.262;2023-04-27T08:58:16;100844.66;;;10.51;100.00
28167;BME280;15455;53.376;-6.262;2023-04-27T09:01:05;100836.84;;;10.49;100.00
28167;BME280;15455;53.376;-6.262;2023-04-27T09:03:56;100838.56;;;10.55;100.00
28167;BME280;15455;53.376;-6.262;2023-04-27T09:06:42;100828.13;;;10.66;100.00
28167;BME280;15455;53.376;-6.262;2023-04-27T09:09:29;100840.28;;;10.82;100.00
28167;BME280;15455;53.376;-6.262;2023-04-27T09:12:21;100835.91;;;10.92;100.00
28167;BME280;15455;53.376;-6.262;2023-04-27T09:15:07;100823.69;;;10.99;100.00
28167;BME280;15455;53.376;-6.262;2023-04-27T09:17:56;100822.81;;;11.01;100.00
28167;BME280;15455;53.376;-6.262;2023-04-27T09:20:44;100816.72;;;10.98;100.00
28167;BME280;15455;53.376;-6.262;2023-04-27T09:23:32;100815.03;;;10.92;100.00
28167;BME280;15455;53.376;-6.262;2023-04-27T09:26:22;100813.31;;;10.85;100.00
28167;BME280;15455;53.376;-6.262;2023-04-27T09:29:08;100818.50;;;10.82;100.00
28167;BME280;15455;53.376;-6.262;2023-04-27T09:31:54;100822.03;;;10.77;100.00
28167;BME280;15455;53.376;-6.262;2023-04-27T09:34:40;100827.22;;;10.74;100.00
28167;BME280;15455;53.376;-6.262;2023-04-27T09:37:26;100825.50;;;10.69;100.00
28167;BME280;15455;53.376;-6.262;2023-04-27T09:40:12;100829.88;;;10.60;100.00
28167;BME280;15455;53.376;-6.262;2023-04-27T09:42:59;100824.66;;;10.56;100.00
28167;BME280;15455;53.376;-6.262;2023-04-27T09:45:49;100817.69;;;10.46;100.00
28167;BME280;15455;53.376;-6.262;2023-04-27T09:48:37;100822.06;;;10.43;100.00
28167;BME280;15455;53.376;-6.262;2023-04-27T09:51:23;100813.38;;;10.40;100.00
28167;BME280;15455;53.376;-6.262;2023-04-27T09:54:09;100821.19;;;10.41;100.00
28167;BME280;15455;53.376;-6.262;2023-04-27T09:57:22;100817.72;;;10.49;100.00
28167;BME280;15455;53.376;-6.262;2023-04-27T10:03:32;100803.78;;;10.64;100.00
28167;BME280;15455;53.376;-6.262;2023-04-27T10:07:00;100803.75;;;10.70;100.00
28167;BME280;15455;53.376;-6.262;2023-04-27T10:09:49;100803.75;;;10.70;100.00
28167;BME280;15455;53.376;-6.262;2023-04-27T10:12:38;100804.63;;;10.70;100.00
28167;BME280;15455;53.376;-6.262;2023-04-27T10:15:27;100792.44;;;10.72;100.00
28167;BME280;15455;53.376;-6.262;2023-04-27T10:18:24;100798.53;;;10.68;100.00
28167;BME280;15455;53.376;-6.262;2023-04-27T10:21:11;100786.34;;;10.66;100.00
28167;BME280;15455;53.376;-6.262;2023-04-27T10:24:06;100790.69;;;10.74;100.00
28167;BME280;15455;53.376;-6.262;2023-04-27T10:27:00;100778.50;;;10.81;100.00
28167;BME280;15455;53.376;-6.262;2023-04-27T10:29:47;100771.53;;;10.86;100.00
28167;BME280;15455;53.376;-6.262;2023-04-27T10:32:33;100779.31;;;10.92;100.00
28167;BME280;15455;53.376;-6.262;2023-04-27T10:35:20;100777.56;;;10.98;100.00
28167;BME280;15455;53.376;-6.262;2023-04-27T10:38:30;100784.50;;;11.06;100.00
28167;BME280;15455;53.376;-6.262;2023-04-27T10:41:15;100768.88;;;10.94;100.00
28167;BME280;15455;53.376;-6.262;2023-04-27T10:44:16;100774.94;;;11.02;100.00
28167;BME280;15455;53.376;-6.262;2023-04-27T10:47:16;100773.16;;;11.10;100.00
28167;BME280;15455;53.376;-6.262;2023-04-27T10:50:04;100773.19;;;11.06;100.00
28167;BME280;15455;53.376;-6.262;2023-04-27T10:52:51;100764.50;;;11.02;100.00
28167;BME280;15455;53.376;-6.262;2023-04-27T10:55:36;100756.69;;;10.93;100.00
28167;BME280;15455;53.376;-6.262;2023-04-27T10:58:22;100765.41;;;10.95;100.00
28167;BME280;15455;53.376;-6.262;2023-04-27T11:01:24;100763.69;;;10.85;100.00
28167;BME280;15455;53.376;-6.262;2023-04-27T11:04:10;100763.69;;;10.82;100.00
28167;BME280;15455;53.376;-6.262;2023-04-27T11:06:56;100761.09;;;10.75;100.00
28167;BME280;15455;53.376;-6.262;2023-04-27T11:09:42;100762.84;;;10.76;100.00
28167;BME280;15455;53.376;-6.262;2023-04-27T11:12:30;100764.59;;;10.77;100.00
28167;BME280;15455;53.376;-6.262;2023-04-27T11:15:16;100765.44;;;10.80;100.00
28167;BME280;15455;53.376;-6.262;2023-04-27T11:18:05;100753.25;;;10.82;100.00
28167;BME280;15455;53.376;-6.262;2023-04-27T11:20:53;100752.31;;;10.98;100.00
28167;BME280;15455;53.376;-6.262;2023-04-27T11:23:39;100740.03;;;11.17;100.00
28167;BME280;15455;53.376;-6.262;2023-04-27T11:26:25;100730.44;;;11.24;100.00
28167;BME280;15455;53.376;-6.262;2023-04-27T11:29:11;100726.91;;;11.31;100.00
28167;BME280;15455;53.376;-6.262;2023-04-27T11:31:59;100713.78;;;11.40;100.00
28167;BME280;15455;53.376;-6.262;2023-04-27T11:34:52;100708.50;;;11.46;100.00
28167;BME280;15455;53.376;-6.262;2023-04-27T11:37:40;100712.84;;;11.51;100.00
28167;BME280;15455;53.376;-6.262;2023-04-27T11:40:26;100714.53;;;11.58;100.00
28167;BME280;15455;53.376;-6.262;2023-04-27T11:43:13;100717.09;;;11.62;100.00
28167;BME280;15455;53.376;-6.262;2023-04-27T11:46:03;100711.88;;;11.67;100.00
28167;BME280;15455;53.376;-6.262;2023-04-27T11:48:50;100715.31;;;11.69;100.00
28167;BME280;15455;53.376;-6.262;2023-04-27T11:51:36;100711.84;;;11.65;100.00
28167;BME280;15455;53.376;-6.262;2023-04-27T11:54:27;100714.53;;;11.59;100.00
28167;BME280;15455;53.376;-6.262;2023-04-27T11:57:13;100704.97;;;11.54;100.00
28167;BME280;15455;53.376;-6.262;2023-04-27T12:00:00;100703.25;;;11.50;100.00
28167;BME280;15455;53.376;-6.262;2023-04-27T12:02:57;100698.09;;;11.42;100.00
28167;BME280;15455;53.376;-6.262;2023-04-27T12:05:50;100702.47;;;11.40;100.00
28167;BME280;15455;53.376;-6.262;2023-04-27T12:08:36;100705.97;;;11.36;100.00
28167;BME280;15455;53.376;-6.262;2023-04-27T12:11:25;100704.28;;;11.27;100.00
28167;BME280;15455;53.376;-6.262;2023-04-27T12:14:14;100709.56;;;11.18;100.00
28167;BME280;15455;53.376;-6.262;2023-04-27T12:17:00;100706.16;;;11.06;100.00
28167;BME280;15455;53.376;-6.262;2023-04-27T12:19:45;100711.38;;;11.02;100.00
28167;BME280;15455;53.376;-6.262;2023-04-27T12:22:30;100705.31;;;10.98;100.00
28167;BME280;15455;53.376;-6.262;2023-04-27T12:25:16;100710.56;;;10.95;100.00
28167;BME280;15455;53.376;-6.262;2023-04-27T12:28:03;100718.38;;;10.97;100.00
28167;BME280;15455;53.376;-6.262;2023-04-27T12:30:49;100712.28;;;10.99;100.00
28167;BME280;15455;53.376;-6.262;2023-04-27T12:33:35;100710.53;;;11.01;100.00
28167;BME280;15455;53.376;-6.262;2023-04-27T12:36:20;100717.50;;;11.02;100.00
28167;BME280;15455;53.376;-6.262;2023-04-27T12:39:20;100713.97;;;11.03;100.00
28167;BME280;15455;53.376;-6.262;2023-04-27T12:42:05;100713.13;;;11.03;100.00
28167;BME280;15455;53.376;-6.262;2023-04-27T12:44:52;100708.75;;;11.08;100.00
28167;BME280;15455;53.376;-6.262;2023-04-27T12:47:37;100713.09;;;11.06;100.00
28167;BME280;15455;53.376;-6.262;2023-04-27T12:50:44;100710.47;;;11.09;100.00
28167;BME280;15455;53.376;-6.262;2023-04-27T12:53:30;100713.06;;;11.18;100.00
28167;BME280;15455;53.376;-6.262;2023-04-27T12:56:16;100719.91;;;11.36;100.00
28167;BME280;15455;53.376;-6.262;2023-04-27T12:59:02;100713.66;;;11.59;100.00
28167;BME280;15455;53.376;-6.262;2023-04-27T13:01:48;100711.81;;;11.72;100.00
28167;BME280;15455;53.376;-6.262;2023-04-27T13:04:34;100694.38;;;11.72;100.00
28167;BME280;15455;53.376;-6.262;2023-04-27T13:07:20;100696.09;;;11.76;100.00
28167;BME280;15455;53.376;-6.262;2023-04-27T13:10:06;100696.97;;;11.75;100.00
28167;BME280;15455;53.376;-6.262;2023-04-27T13:12:53;100690.94;;;11.69;100.00
28167;BME280;15455;53.376;-6.262;2023-04-27T13:15:38;100694.47;;;11.64;100.00
28167;BME280;15455;53.376;-6.262;2023-04-27T13:18:24;100692.69;;;11.65;100.00
28167;BME280;15455;53.376;-6.262;2023-04-27T13:21:10;100686.50;;;11.75;100.00
28167;BME280;15455;53.376;-6.262;2023-04-27T13:23:56;100687.25;;;11.91;100.00
28167;BME280;15455;53.376;-6.262;2023-04-27T13:26:44;100675.84;;;12.00;100.00
28167;BME280;15455;53.376;-6.262;2023-04-27T13:29:30;100672.25;;;12.13;100.00
28167;BME280;15455;53.376;-6.262;2023-04-27T13:32:16;100663.25;;;12.38;100.00
28167;BME280;15455;53.376;-6.262;2023-04-27T13:35:01;100660.38;;;12.64;100.00
28167;BME280;15455;53.376;-6.262;2023-04-27T13:37:47;100666.09;;;12.91;100.00
28167;BME280;15455;53.376;-6.262;2023-04-27T13:40:33;100655.59;;;12.92;100.00
28167;BME280;15455;53.376;-6.262;2023-04-27T13:43:19;100660.06;;;12.84;100.00
28167;BME280;15455;53.376;-6.262;2023-04-27T13:46:04;100648.22;;;12.57;100.00
28167;BME280;15455;53.376;-6.262;2023-04-27T13:48:50;100652.84;;;12.33;100.00
28167;BME280;15455;53.376;-6.262;2023-04-27T13:51:35;100650.41;;;12.19;100.00
28167;BME280;15455;53.376;-6.262;2023-04-27T13:54:20;100649.66;;;12.08;100.00
28167;BME280;15455;53.376;-6.262;2023-04-27T13:57:06;100648.78;;;12.06;100.00
28167;BME280;15455;53.376;-6.262;2023-04-27T13:59:52;100651.22;;;12.23;100.00
28167;BME280;15455;53.376;-6.262;2023-04-27T14:02:37;100656.03;;;12.61;100.00
28167;BME280;15455;53.376;-6.262;2023-04-27T14:05:23;100639.03;;;12.92;100.00
28167;BME280;15455;53.376;-6.262;2023-04-27T14:08:10;100641.19;;;13.24;100.00
28167;BME280;15455;53.376;-6.262;2023-04-27T14:10:57;100637.47;;;13.41;100.00
28167;BME280;15455;53.376;-6.262;2023-04-27T14:13:43;100627.09;;;13.31;100.00
28167;BME280;15455;53.376;-6.262;2023-04-27T14:16:28;100626.56;;;13.09;100.00
28167;BME280;15455;53.376;-6.262;2023-04-27T14:19:14;100630.88;;;13.13;100.00